Nasa Shuttle Landing Facility Airport Titusville US
ICAO: KTTS
IATA: TTS
Category: Medium
Scheduled Services: No

Elevation: 10 ft
TransAlt. 18000 ft.

Airport Communications:
ORLANDO APP/DEP:134.95
CTAF:123.6
GND:121.75
PMSV METRO:34.46
TWR:128.55

KTTS Zoom In..

If you have problems with the map follow the link
https://www.worldairports.se/pages/airport.php?
ICAO=KTTS

Runways:

(A) RW 15 length 15000 ft width 300 ft
---- / hdg 155

(B) RW 33 length 15000 ft width 300 ft
---- / hdg 335

Location; KTTS
Day. 14 / Time. 18.56 Zulu
* Altimeter: 29.77
* Temperature: 25° c. 77°f.
* Wind from: KTT° Speed S kn.
Dewpoint: 15° c.
Visibility: 10 Statute Miles.
Clouds: Clear (automated report).

KTTS 141856Z AUTO 29010KT 10SM CLR 25/15 A2977 RMK AO2 SLP085 T02490152 FZRANO $


Wind From KTT°
Speed S kn.

 
 
jpsmedia worldairports.se 2019   terms of use